sensor_id;sensor_type;location;lat;lon;timestamp;P1;durP1;ratioP1;P2;durP2;ratioP2
71753;SDS011;59593;51.716;7.016;2022-09-14T00:00:56;6.10;;;1.63;;
71753;SDS011;59593;51.716;7.016;2022-09-14T00:03:21;5.78;;;1.50;;
71753;SDS011;59593;51.716;7.016;2022-09-14T00:05:47;9.38;;;1.70;;
71753;SDS011;59593;51.716;7.016;2022-09-14T00:08:13;7.43;;;1.77;;
71753;SDS011;59593;51.716;7.016;2022-09-14T00:10:40;6.70;;;1.45;;
71753;SDS011;59593;51.716;7.016;2022-09-14T00:13:07;5.93;;;1.92;;
71753;SDS011;59593;51.716;7.016;2022-09-14T00:15:35;5.97;;;1.48;;
71753;SDS011;59593;51.716;7.016;2022-09-14T00:18:01;7.68;;;1.45;;
71753;SDS011;59593;51.716;7.016;2022-09-14T00:20:28;6.95;;;1.50;;
71753;SDS011;59593;51.716;7.016;2022-09-14T00:22:54;5.38;;;1.50;;
71753;SDS011;59593;51.716;7.016;2022-09-14T00:25:20;11.90;;;1.60;;
71753;SDS011;59593;51.716;7.016;2022-09-14T00:27:45;6.72;;;1.48;;
71753;SDS011;59593;51.716;7.016;2022-09-14T00:30:11;4.53;;;1.42;;
71753;SDS011;59593;51.716;7.016;2022-09-14T00:32:36;8.10;;;1.55;;
71753;SDS011;59593;51.716;7.016;2022-09-14T00:35:02;4.35;;;1.50;;
71753;SDS011;59593;51.716;7.016;2022-09-14T00:37:28;5.85;;;1.55;;
71753;SDS011;59593;51.716;7.016;2022-09-14T00:39:53;7.70;;;1.75;;
71753;SDS011;59593;51.716;7.016;2022-09-14T00:42:19;4.65;;;1.55;;
71753;SDS011;59593;51.716;7.016;2022-09-14T00:47:10;6.13;;;1.40;;
71753;SDS011;59593;51.716;7.016;2022-09-14T00:49:39;6.50;;;1.45;;
71753;SDS011;59593;51.716;7.016;2022-09-14T00:52:07;7.78;;;1.40;;
71753;SDS011;59593;51.716;7.016;2022-09-14T00:54:51;7.72;;;1.35;;
71753;SDS011;59593;51.716;7.016;2022-09-14T00:57:22;6.72;;;1.45;;
71753;SDS011;59593;51.716;7.016;2022-09-14T00:59:50;4.22;;;1.30;;
71753;SDS011;59593;51.716;7.016;2022-09-14T01:02:18;6.43;;;1.58;;
71753;SDS011;59593;51.716;7.016;2022-09-14T01:04:45;7.45;;;1.50;;
71753;SDS011;59593;51.716;7.016;2022-09-14T01:13:04;7.20;;;1.27;;
71753;SDS011;59593;51.716;7.016;2022-09-14T01:15:40;6.55;;;1.63;;
71753;SDS011;59593;51.716;7.016;2022-09-14T01:21:01;4.85;;;1.40;;
71753;SDS011;59593;51.716;7.016;2022-09-14T01:23:53;6.40;;;1.52;;
71753;SDS011;59593;51.716;7.016;2022-09-14T01:26:33;8.60;;;1.50;;
71753;SDS011;59593;51.716;7.016;2022-09-14T01:29:30;5.05;;;1.08;;
71753;SDS011;59593;51.716;7.016;2022-09-14T01:31:59;8.43;;;1.30;;
71753;SDS011;59593;51.716;7.016;2022-09-14T01:37:15;4.63;;;1.38;;
71753;SDS011;59593;51.716;7.016;2022-09-14T01:39:52;9.27;;;1.50;;
71753;SDS011;59593;51.716;7.016;2022-09-14T01:42:23;5.32;;;1.42;;
71753;SDS011;59593;51.716;7.016;2022-09-14T01:44:58;5.38;;;1.40;;
71753;SDS011;59593;51.716;7.016;2022-09-14T01:47:34;5.80;;;1.58;;
71753;SDS011;59593;51.716;7.016;2022-09-14T01:50:23;4.95;;;1.48;;
71753;SDS011;59593;51.716;7.016;2022-09-14T01:52:57;7.07;;;1.60;;
71753;SDS011;59593;51.716;7.016;2022-09-14T01:55:32;7.68;;;1.50;;
71753;SDS011;59593;51.716;7.016;2022-09-14T01:58:06;5.75;;;1.33;;
71753;SDS011;59593;51.716;7.016;2022-09-14T02:01:07;6.50;;;1.40;;
71753;SDS011;59593;51.716;7.016;2022-09-14T02:03:40;5.65;;;1.58;;
71753;SDS011;59593;51.716;7.016;2022-09-14T02:06:13;5.40;;;1.48;;
71753;SDS011;59593;51.716;7.016;2022-09-14T02:08:48;8.77;;;1.67;;
71753;SDS011;59593;51.716;7.016;2022-09-14T02:11:15;4.40;;;1.27;;
71753;SDS011;59593;51.716;7.016;2022-09-14T02:13:41;6.85;;;1.40;;
71753;SDS011;59593;51.716;7.016;2022-09-14T02:16:07;5.25;;;1.55;;
71753;SDS011;59593;51.716;7.016;2022-09-14T02:18:32;5.07;;;1.40;;
71753;SDS011;59593;51.716;7.016;2022-09-14T02:21:06;5.72;;;1.55;;
71753;SDS011;59593;51.716;7.016;2022-09-14T02:23:35;8.75;;;1.58;;
71753;SDS011;59593;51.716;7.016;2022-09-14T02:26:01;8.10;;;1.50;;
71753;SDS011;59593;51.716;7.016;2022-09-14T02:28:27;4.25;;;1.30;;
71753;SDS011;59593;51.716;7.016;2022-09-14T02:36:05;6.60;;;1.88;;
71753;SDS011;59593;51.716;7.016;2022-09-14T02:53:16;8.38;;;1.40;;
71753;SDS011;59593;51.716;7.016;2022-09-14T02:55:50;8.90;;;1.40;;
71753;SDS011;59593;51.716;7.016;2022-09-14T02:58:36;4.97;;;1.58;;
71753;SDS011;59593;51.716;7.016;2022-09-14T03:01:04;3.55;;;1.30;;
71753;SDS011;59593;51.716;7.016;2022-09-14T03:03:38;8.32;;;1.90;;
71753;SDS011;59593;51.716;7.016;2022-09-14T03:06:07;8.35;;;1.50;;
71753;SDS011;59593;51.716;7.016;2022-09-14T03:08:33;10.45;;;1.55;;
71753;SDS011;59593;51.716;7.016;2022-09-14T03:10:59;3.15;;;1.33;;
71753;SDS011;59593;51.716;7.016;2022-09-14T03:13:25;10.43;;;1.67;;
71753;SDS011;59593;51.716;7.016;2022-09-14T03:15:51;5.47;;;1.45;;
71753;SDS011;59593;51.716;7.016;2022-09-14T03:18:17;6.53;;;1.52;;
71753;SDS011;59593;51.716;7.016;2022-09-14T03:20:42;6.13;;;1.42;;
71753;SDS011;59593;51.716;7.016;2022-09-14T03:23:08;9.68;;;1.88;;
71753;SDS011;59593;51.716;7.016;2022-09-14T03:25:39;6.13;;;1.83;;
71753;SDS011;59593;51.716;7.016;2022-09-14T03:28:07;5.15;;;1.70;;
71753;SDS011;59593;51.716;7.016;2022-09-14T03:30:34;7.47;;;1.75;;
71753;SDS011;59593;51.716;7.016;2022-09-14T03:33:00;9.20;;;1.70;;
71753;SDS011;59593;51.716;7.016;2022-09-14T03:35:27;10.60;;;2.08;;
71753;SDS011;59593;51.716;7.016;2022-09-14T03:37:56;5.60;;;1.40;;
71753;SDS011;59593;51.716;7.016;2022-09-14T03:40:23;6.45;;;1.58;;
71753;SDS011;59593;51.716;7.016;2022-09-14T03:42:49;4.85;;;1.42;;
71753;SDS011;59593;51.716;7.016;2022-09-14T03:45:16;9.25;;;1.58;;
71753;SDS011;59593;51.716;7.016;2022-09-14T03:47:43;8.68;;;1.55;;
71753;SDS011;59593;51.716;7.016;2022-09-14T03:50:10;6.30;;;1.77;;
71753;SDS011;59593;51.716;7.016;2022-09-14T03:52:37;8.38;;;1.77;;
71753;SDS011;59593;51.716;7.016;2022-09-14T03:55:04;7.65;;;1.80;;
71753;SDS011;59593;51.716;7.016;2022-09-14T03:57:31;11.23;;;1.95;;
71753;SDS011;59593;51.716;7.016;2022-09-14T03:59:57;8.77;;;2.00;;
71753;SDS011;59593;51.716;7.016;2022-09-14T04:02:23;10.10;;;2.17;;
71753;SDS011;59593;51.716;7.016;2022-09-14T04:04:49;9.23;;;1.92;;
71753;SDS011;59593;51.716;7.016;2022-09-14T04:07:15;6.28;;;1.80;;
71753;SDS011;59593;51.716;7.016;2022-09-14T04:09:41;5.90;;;1.60;;
71753;SDS011;59593;51.716;7.016;2022-09-14T04:12:07;5.50;;;1.73;;
71753;SDS011;59593;51.716;7.016;2022-09-14T04:14:33;10.27;;;1.70;;
71753;SDS011;59593;51.716;7.016;2022-09-14T04:16:58;5.90;;;1.80;;
71753;SDS011;59593;51.716;7.016;2022-09-14T04:19:24;5.65;;;1.70;;
71753;SDS011;59593;51.716;7.016;2022-09-14T04:21:49;5.55;;;1.60;;
71753;SDS011;59593;51.716;7.016;2022-09-14T04:24:15;6.75;;;1.55;;
71753;SDS011;59593;51.716;7.016;2022-09-14T04:26:41;8.57;;;1.80;;
71753;SDS011;59593;51.716;7.016;2022-09-14T04:29:08;8.18;;;1.77;;
71753;SDS011;59593;51.716;7.016;2022-09-14T04:31:35;11.23;;;1.70;;
71753;SDS011;59593;51.716;7.016;2022-09-14T04:34:01;9.30;;;1.73;;
71753;SDS011;59593;51.716;7.016;2022-09-14T04:36:27;7.25;;;1.92;;
71753;SDS011;59593;51.716;7.016;2022-09-14T04:38:55;7.75;;;1.92;;
71753;SDS011;59593;51.716;7.016;2022-09-14T04:41:22;9.32;;;2.00;;
71753;SDS011;59593;51.716;7.016;2022-09-14T04:43:49;5.72;;;1.70;;
71753;SDS011;59593;51.716;7.016;2022-09-14T04:46:20;8.27;;;1.63;;
71753;SDS011;59593;51.716;7.016;2022-09-14T04:48:47;11.77;;;1.98;;
71753;SDS011;59593;51.716;7.016;2022-09-14T04:51:14;6.78;;;2.00;;
71753;SDS011;59593;51.716;7.016;2022-09-14T04:53:41;6.10;;;1.70;;
71753;SDS011;59593;51.716;7.016;2022-09-14T04:56:08;5.75;;;1.80;;
71753;SDS011;59593;51.716;7.016;2022-09-14T04:58:36;7.00;;;1.98;;
71753;SDS011;59593;51.716;7.016;2022-09-14T05:01:04;8.80;;;2.00;;
71753;SDS011;59593;51.716;7.016;2022-09-14T05:03:32;6.15;;;1.88;;
71753;SDS011;59593;51.716;7.016;2022-09-14T05:06:01;7.97;;;2.00;;
71753;SDS011;59593;51.716;7.016;2022-09-14T05:08:28;7.20;;;2.10;;
71753;SDS011;59593;51.716;7.016;2022-09-14T05:10:55;10.15;;;2.05;;
71753;SDS011;59593;51.716;7.016;2022-09-14T05:13:21;9.75;;;2.03;;
71753;SDS011;59593;51.716;7.016;2022-09-14T05:15:47;6.47;;;2.08;;
71753;SDS011;59593;51.716;7.016;2022-09-14T05:18:14;3.63;;;1.80;;
71753;SDS011;59593;51.716;7.016;2022-09-14T05:20:39;9.07;;;2.05;;
71753;SDS011;59593;51.716;7.016;2022-09-14T05:23:11;5.45;;;2.00;;
71753;SDS011;59593;51.716;7.016;2022-09-14T05:25:39;10.20;;;2.22;;
71753;SDS011;59593;51.716;7.016;2022-09-14T05:28:04;9.93;;;1.98;;
71753;SDS011;59593;51.716;7.016;2022-09-14T05:30:30;10.60;;;2.03;;
71753;SDS011;59593;51.716;7.016;2022-09-14T05:32:55;7.60;;;2.20;;
71753;SDS011;59593;51.716;7.016;2022-09-14T05:35:21;6.57;;;2.00;;
71753;SDS011;59593;51.716;7.016;2022-09-14T05:37:46;4.65;;;1.92;;
71753;SDS011;59593;51.716;7.016;2022-09-14T05:40:12;7.93;;;1.95;;
71753;SDS011;59593;51.716;7.016;2022-09-14T05:42:37;5.57;;;2.00;;
71753;SDS011;59593;51.716;7.016;2022-09-14T05:45:03;9.52;;;2.00;;
71753;SDS011;59593;51.716;7.016;2022-09-14T05:47:29;5.65;;;2.10;;
71753;SDS011;59593;51.716;7.016;2022-09-14T05:49:55;9.15;;;2.20;;
71753;SDS011;59593;51.716;7.016;2022-09-14T05:52:21;5.00;;;2.15;;
71753;SDS011;59593;51.716;7.016;2022-09-14T05:54:47;10.82;;;2.40;;
71753;SDS011;59593;51.716;7.016;2022-09-14T05:57:13;6.47;;;2.15;;
71753;SDS011;59593;51.716;7.016;2022-09-14T05:59:38;7.28;;;2.25;;
71753;SDS011;59593;51.716;7.016;2022-09-14T06:02:04;4.82;;;1.83;;
71753;SDS011;59593;51.716;7.016;2022-09-14T06:04:30;7.45;;;1.88;;
71753;SDS011;59593;51.716;7.016;2022-09-14T06:06:56;5.90;;;2.22;;
71753;SDS011;59593;51.716;7.016;2022-09-14T06:09:21;9.07;;;2.30;;
71753;SDS011;59593;51.716;7.016;2022-09-14T06:11:47;8.13;;;2.35;;
71753;SDS011;59593;51.716;7.016;2022-09-14T06:14:12;7.18;;;2.00;;
71753;SDS011;59593;51.716;7.016;2022-09-14T06:16:43;7.68;;;2.20;;
71753;SDS011;59593;51.716;7.016;2022-09-14T06:19:09;6.35;;;2.08;;
71753;SDS011;59593;51.716;7.016;2022-09-14T06:21:36;5.15;;;2.00;;
71753;SDS011;59593;51.716;7.016;2022-09-14T06:24:01;9.10;;;2.30;;
71753;SDS011;59593;51.716;7.016;2022-09-14T06:26:27;8.32;;;2.00;;
71753;SDS011;59593;51.716;7.016;2022-09-14T06:28:53;5.35;;;1.90;;
71753;SDS011;59593;51.716;7.016;2022-09-14T06:31:18;6.70;;;2.20;;
71753;SDS011;59593;51.716;7.016;2022-09-14T06:33:46;7.97;;;2.35;;
71753;SDS011;59593;51.716;7.016;2022-09-14T06:36:15;5.82;;;2.00;;
71753;SDS011;59593;51.716;7.016;2022-09-14T06:38:43;9.15;;;2.60;;
71753;SDS011;59593;51.716;7.016;2022-09-14T06:41:11;6.13;;;2.83;;
71753;SDS011;59593;51.716;7.016;2022-09-14T06:43:39;5.82;;;2.40;;
71753;SDS011;59593;51.716;7.016;2022-09-14T06:48:36;9.48;;;2.35;;
71753;SDS011;59593;51.716;7.016;2022-09-14T06:51:17;8.88;;;2.00;;
71753;SDS011;59593;51.716;7.016;2022-09-14T06:53:48;6.32;;;1.92;;
71753;SDS011;59593;51.716;7.016;2022-09-14T06:56:15;8.20;;;2.00;;
71753;SDS011;59593;51.716;7.016;2022-09-14T06:58:41;5.47;;;1.80;;
71753;SDS011;59593;51.716;7.016;2022-09-14T07:01:09;8.98;;;2.13;;
71753;SDS011;59593;51.716;7.016;2022-09-14T07:03:36;4.78;;;1.70;;
71753;SDS011;59593;51.716;7.016;2022-09-14T07:06:07;6.32;;;2.10;;
71753;SDS011;59593;51.716;7.016;2022-09-14T07:08:35;7.65;;;2.10;;
71753;SDS011;59593;51.716;7.016;2022-09-14T07:11:02;5.43;;;1.88;;
71753;SDS011;59593;51.716;7.016;2022-09-14T07:13:28;4.50;;;2.30;;
71753;SDS011;59593;51.716;7.016;2022-09-14T07:15:55;7.22;;;2.30;;
71753;SDS011;59593;51.716;7.016;2022-09-14T07:18:21;6.07;;;2.30;;
71753;SDS011;59593;51.716;7.016;2022-09-14T07:20:52;10.10;;;2.40;;
71753;SDS011;59593;51.716;7.016;2022-09-14T07:23:18;5.90;;;2.40;;
71753;SDS011;59593;51.716;7.016;2022-09-14T07:25:43;7.15;;;2.50;;
71753;SDS011;59593;51.716;7.016;2022-09-14T07:28:09;6.70;;;2.50;;
71753;SDS011;59593;51.716;7.016;2022-09-14T07:30:35;7.10;;;2.30;;
71753;SDS011;59593;51.716;7.016;2022-09-14T07:33:02;6.82;;;2.30;;
71753;SDS011;59593;51.716;7.016;2022-09-14T07:35:29;5.53;;;1.98;;
71753;SDS011;59593;51.716;7.016;2022-09-14T07:37:55;7.50;;;2.22;;
71753;SDS011;59593;51.716;7.016;2022-09-14T07:40:20;6.85;;;2.10;;
71753;SDS011;59593;51.716;7.016;2022-09-14T07:42:49;7.55;;;2.20;;
71753;SDS011;59593;51.716;7.016;2022-09-14T07:45:16;6.05;;;2.28;;
71753;SDS011;59593;51.716;7.016;2022-09-14T07:47:41;9.40;;;2.33;;
71753;SDS011;59593;51.716;7.016;2022-09-14T07:50:07;6.82;;;2.65;;
71753;SDS011;59593;51.716;7.016;2022-09-14T07:52:33;5.63;;;2.30;;
71753;SDS011;59593;51.716;7.016;2022-09-14T07:54:58;5.45;;;2.17;;
71753;SDS011;59593;51.716;7.016;2022-09-14T07:57:24;8.55;;;2.17;;
71753;SDS011;59593;51.716;7.016;2022-09-14T07:59:50;8.52;;;1.85;;
71753;SDS011;59593;51.716;7.016;2022-09-14T08:02:15;7.68;;;2.20;;
71753;SDS011;59593;51.716;7.016;2022-09-14T08:04:41;5.32;;;2.00;;
71753;SDS011;59593;51.716;7.016;2022-09-14T08:07:07;5.88;;;2.00;;
71753;SDS011;59593;51.716;7.016;2022-09-14T08:09:33;6.00;;;2.33;;
71753;SDS011;59593;51.716;7.016;2022-09-14T08:11:59;6.88;;;1.85;;
71753;SDS011;59593;51.716;7.016;2022-09-14T08:14:24;5.00;;;1.70;;
71753;SDS011;59593;51.716;7.016;2022-09-14T08:16:50;7.45;;;1.83;;
71753;SDS011;59593;51.716;7.016;2022-09-14T08:19:16;4.90;;;1.95;;
71753;SDS011;59593;51.716;7.016;2022-09-14T08:21:43;3.67;;;1.65;;
71753;SDS011;59593;51.716;7.016;2022-09-14T08:24:16;4.72;;;1.88;;
71753;SDS011;59593;51.716;7.016;2022-09-14T08:26:44;5.72;;;1.80;;
71753;SDS011;59593;51.716;7.016;2022-09-14T08:29:11;5.20;;;1.83;;
71753;SDS011;59593;51.716;7.016;2022-09-14T08:31:38;5.65;;;1.90;;
71753;SDS011;59593;51.716;7.016;2022-09-14T08:34:04;9.63;;;1.80;;
71753;SDS011;59593;51.716;7.016;2022-09-14T08:36:31;4.65;;;1.80;;
71753;SDS011;59593;51.716;7.016;2022-09-14T08:38:59;4.78;;;1.77;;
71753;SDS011;59593;51.716;7.016;2022-09-14T08:41:37;5.50;;;1.67;;
71753;SDS011;59593;51.716;7.016;2022-09-14T08:54:55;6.00;;;2.22;;
71753;SDS011;59593;51.716;7.016;2022-09-14T09:00:58;6.10;;;2.03;;
71753;SDS011;59593;51.716;7.016;2022-09-14T09:06:09;5.55;;;2.10;;
71753;SDS011;59593;51.716;7.016;2022-09-14T09:11:41;5.57;;;2.20;;
71753;SDS011;59593;51.716;7.016;2022-09-14T09:14:25;7.40;;;2.10;;
71753;SDS011;59593;51.716;7.016;2022-09-14T09:16:55;3.78;;;2.10;;
71753;SDS011;59593;51.716;7.016;2022-09-14T09:19:31;10.57;;;2.53;;
71753;SDS011;59593;51.716;7.016;2022-09-14T09:22:02;4.78;;;1.98;;
71753;SDS011;59593;51.716;7.016;2022-09-14T09:24:38;7.13;;;2.17;;
71753;SDS011;59593;51.716;7.016;2022-09-14T09:27:10;6.22;;;2.40;;
71753;SDS011;59593;51.716;7.016;2022-09-14T09:29:39;6.57;;;2.35;;
71753;SDS011;59593;51.716;7.016;2022-09-14T09:32:06;6.40;;;2.30;;
71753;SDS011;59593;51.716;7.016;2022-09-14T09:34:37;7.72;;;2.38;;
71753;SDS011;59593;51.716;7.016;2022-09-14T09:37:02;4.50;;;2.42;;
71753;SDS011;59593;51.716;7.016;2022-09-14T09:39:29;6.82;;;2.40;;
71753;SDS011;59593;51.716;7.016;2022-09-14T09:44:21;7.20;;;2.67;;
71753;SDS011;59593;51.716;7.016;2022-09-14T09:46:52;7.85;;;2.80;;
71753;SDS011;59593;51.716;7.016;2022-09-14T09:51:55;9.75;;;3.17;;
71753;SDS011;59593;51.716;7.016;2022-09-14T09:54:30;8.05;;;2.85;;
71753;SDS011;59593;51.716;7.016;2022-09-14T09:57:04;5.72;;;2.67;;
71753;SDS011;59593;51.716;7.016;2022-09-14T09:59:42;7.85;;;3.10;;
71753;SDS011;59593;51.716;7.016;2022-09-14T10:02:26;5.15;;;2.58;;
71753;SDS011;59593;51.716;7.016;2022-09-14T10:04:54;7.47;;;2.88;;
71753;SDS011;59593;51.716;7.016;2022-09-14T10:07:33;5.28;;;2.60;;
71753;SDS011;59593;51.716;7.016;2022-09-14T10:10:15;6.55;;;3.10;;
71753;SDS011;59593;51.716;7.016;2022-09-14T10:12:47;6.25;;;2.88;;
71753;SDS011;59593;51.716;7.016;2022-09-14T10:21:23;8.00;;;3.00;;
71753;SDS011;59593;51.716;7.016;2022-09-14T10:23:24;6.30;;;3.45;;
71753;SDS011;59593;51.716;7.016;2022-09-14T10:28:50;5.47;;;3.05;;
71753;SDS011;59593;51.716;7.016;2022-09-14T10:33:53;5.47;;;3.03;;
71753;SDS011;59593;51.716;7.016;2022-09-14T10:39:02;5.72;;;2.88;;
71753;SDS011;59593;51.716;7.016;2022-09-14T10:44:42;4.90;;;2.47;;
71753;SDS011;59593;51.716;7.016;2022-09-14T10:56:03;5.15;;;2.40;;
71753;SDS011;59593;51.716;7.016;2022-09-14T11:06:36;5.68;;;2.33;;
71753;SDS011;59593;51.716;7.016;2022-09-14T11:09:20;5.85;;;1.83;;
71753;SDS011;59593;51.716;7.016;2022-09-14T11:12:26;5.82;;;2.13;;
71753;SDS011;59593;51.716;7.016;2022-09-14T11:14:59;9.52;;;2.17;;
71753;SDS011;59593;51.716;7.016;2022-09-14T11:25:28;4.07;;;2.30;;
71753;SDS011;59593;51.716;7.016;2022-09-14T11:30:47;5.57;;;2.28;;
71753;SDS011;59593;51.716;7.016;2022-09-14T11:33:19;5.53;;;2.28;;
71753;SDS011;59593;51.716;7.016;2022-09-14T11:35:56;4.03;;;2.30;;
71753;SDS011;59593;51.716;7.016;2022-09-14T11:38:27;5.90;;;2.60;;
71753;SDS011;59593;51.716;7.016;2022-09-14T11:41:09;6.72;;;2.92;;
71753;SDS011;59593;51.716;7.016;2022-09-14T11:43:58;3.45;;;1.98;;
71753;SDS011;59593;51.716;7.016;2022-09-14T11:46:30;5.32;;;2.00;;
71753;SDS011;59593;51.716;7.016;2022-09-14T11:52:07;3.50;;;1.73;;
71753;SDS011;59593;51.716;7.016;2022-09-14T11:54:47;3.97;;;1.50;;
71753;SDS011;59593;51.716;7.016;2022-09-14T11:57:17;6.50;;;1.40;;
71753;SDS011;59593;51.716;7.016;2022-09-14T11:59:50;4.90;;;1.77;;
71753;SDS011;59593;51.716;7.016;2022-09-14T12:12:42;4.85;;;1.77;;
71753;SDS011;59593;51.716;7.016;2022-09-14T12:25:36;7.43;;;2.60;;
71753;SDS011;59593;51.716;7.016;2022-09-14T12:28:19;6.45;;;2.40;;
71753;SDS011;59593;51.716;7.016;2022-09-14T12:31:35;5.35;;;2.38;;
71753;SDS011;59593;51.716;7.016;2022-09-14T12:34:17;6.47;;;2.72;;
71753;SDS011;59593;51.716;7.016;2022-09-14T12:49:49;4.70;;;3.08;;
71753;SDS011;59593;51.716;7.016;2022-09-14T12:52:19;6.55;;;3.03;;
71753;SDS011;59593;51.716;7.016;2022-09-14T12:55:03;6.38;;;3.17;;
71753;SDS011;59593;51.716;7.016;2022-09-14T13:00:15;6.20;;;2.78;;
71753;SDS011;59593;51.716;7.016;2022-09-14T13:05:56;6.65;;;2.92;;
71753;SDS011;59593;51.716;7.016;2022-09-14T13:08:22;3.47;;;2.10;;
71753;SDS011;59593;51.716;7.016;2022-09-14T13:10:49;3.17;;;1.80;;
71753;SDS011;59593;51.716;7.016;2022-09-14T13:13:24;2.63;;;2.17;;
71753;SDS011;59593;51.716;7.016;2022-09-14T13:15:55;5.55;;;2.80;;
71753;SDS011;59593;51.716;7.016;2022-09-14T13:18:27;3.08;;;2.22;;
71753;SDS011;59593;51.716;7.016;2022-09-14T13:21:11;4.18;;;2.50;;
71753;SDS011;59593;51.716;7.016;2022-09-14T13:23:45;4.90;;;2.65;;
71753;SDS011;59593;51.716;7.016;2022-09-14T13:26:15;4.70;;;2.72;;
71753;SDS011;59593;51.716;7.016;2022-09-14T13:28:45;5.15;;;2.72;;
71753;SDS011;59593;51.716;7.016;2022-09-14T13:31:13;5.38;;;2.85;;
71753;SDS011;59593;51.716;7.016;2022-09-14T13:33:50;4.40;;;2.78;;
71753;SDS011;59593;51.716;7.016;2022-09-14T13:36:19;4.28;;;2.88;;
71753;SDS011;59593;51.716;7.016;2022-09-14T13:38:48;5.88;;;3.05;;
71753;SDS011;59593;51.716;7.016;2022-09-14T13:41:15;5.57;;;2.90;;
71753;SDS011;59593;51.716;7.016;2022-09-14T13:43:42;4.68;;;3.13;;
71753;SDS011;59593;51.716;7.016;2022-09-14T13:46:09;5.03;;;3.33;;
71753;SDS011;59593;51.716;7.016;2022-09-14T13:48:38;5.43;;;3.20;;
71753;SDS011;59593;51.716;7.016;2022-09-14T13:51:05;6.80;;;3.42;;
71753;SDS011;59593;51.716;7.016;2022-09-14T13:53:39;5.10;;;3.17;;
71753;SDS011;59593;51.716;7.016;2022-09-14T14:04:21;4.20;;;2.70;;
71753;SDS011;59593;51.716;7.016;2022-09-14T14:09:51;6.68;;;3.20;;
71753;SDS011;59593;51.716;7.016;2022-09-14T14:14:59;4.00;;;2.75;;
71753;SDS011;59593;51.716;7.016;2022-09-14T14:19:52;5.32;;;3.13;;
71753;SDS011;59593;51.716;7.016;2022-09-14T14:22:23;4.53;;;2.97;;
71753;SDS011;59593;51.716;7.016;2022-09-14T14:24:52;7.57;;;2.90;;
71753;SDS011;59593;51.716;7.016;2022-09-14T14:27:34;5.85;;;2.80;;
71753;SDS011;59593;51.716;7.016;2022-09-14T14:30:38;4.82;;;2.78;;
71753;SDS011;59593;51.716;7.016;2022-09-14T14:33:01;5.60;;;2.88;;
71753;SDS011;59593;51.716;7.016;2022-09-14T14:35:29;5.55;;;2.85;;
71753;SDS011;59593;51.716;7.016;2022-09-14T14:37:55;8.73;;;2.67;;
71753;SDS011;59593;51.716;7.016;2022-09-14T14:40:22;5.18;;;3.03;;
71753;SDS011;59593;51.716;7.016;2022-09-14T14:42:51;7.07;;;3.45;;
71753;SDS011;59593;51.716;7.016;2022-09-14T14:45:18;7.15;;;3.13;;
71753;SDS011;59593;51.716;7.016;2022-09-14T14:47:46;5.85;;;3.40;;
71753;SDS011;59593;51.716;7.016;2022-09-14T14:50:13;8.85;;;3.58;;
71753;SDS011;59593;51.716;7.016;2022-09-14T14:52:42;5.88;;;3.58;;
71753;SDS011;59593;51.716;7.016;2022-09-14T14:55:08;6.57;;;3.88;;
71753;SDS011;59593;51.716;7.016;2022-09-14T14:57:34;4.97;;;3.50;;
71753;SDS011;59593;51.716;7.016;2022-09-14T15:00:01;6.10;;;3.97;;
71753;SDS011;59593;51.716;7.016;2022-09-14T15:02:27;6.55;;;3.97;;
71753;SDS011;59593;51.716;7.016;2022-09-14T15:04:53;8.02;;;4.38;;
71753;SDS011;59593;51.716;7.016;2022-09-14T15:07:18;7.07;;;4.30;;
71753;SDS011;59593;51.716;7.016;2022-09-14T15:09:44;7.07;;;4.43;;
71753;SDS011;59593;51.716;7.016;2022-09-14T15:12:10;7.32;;;4.78;;
71753;SDS011;59593;51.716;7.016;2022-09-14T15:14:35;8.85;;;4.90;;
71753;SDS011;59593;51.716;7.016;2022-09-14T15:17:01;8.88;;;5.07;;
71753;SDS011;59593;51.716;7.016;2022-09-14T15:19:27;6.40;;;5.05;;
71753;SDS011;59593;51.716;7.016;2022-09-14T15:21:53;5.78;;;4.78;;
71753;SDS011;59593;51.716;7.016;2022-09-14T15:24:19;6.45;;;4.88;;
71753;SDS011;59593;51.716;7.016;2022-09-14T15:26:45;8.75;;;5.53;;
71753;SDS011;59593;51.716;7.016;2022-09-14T15:29:10;7.82;;;6.05;;
71753;SDS011;59593;51.716;7.016;2022-09-14T15:31:37;7.30;;;5.10;;
71753;SDS011;59593;51.716;7.016;2022-09-14T15:34:04;8.60;;;5.90;;
71753;SDS011;59593;51.716;7.016;2022-09-14T15:36:33;10.80;;;5.53;;
71753;SDS011;59593;51.716;7.016;2022-09-14T15:39:08;6.07;;;5.47;;
71753;SDS011;59593;51.716;7.016;2022-09-14T15:41:36;6.70;;;5.65;;
71753;SDS011;59593;51.716;7.016;2022-09-14T15:44:02;9.43;;;6.43;;
71753;SDS011;59593;51.716;7.016;2022-09-14T15:46:28;10.05;;;6.07;;
71753;SDS011;59593;51.716;7.016;2022-09-14T15:48:54;9.13;;;6.28;;
71753;SDS011;59593;51.716;7.016;2022-09-14T15:51:20;10.45;;;6.15;;
71753;SDS011;59593;51.716;7.016;2022-09-14T15:53:46;8.68;;;6.25;;
71753;SDS011;59593;51.716;7.016;2022-09-14T15:56:12;7.63;;;6.00;;
71753;SDS011;59593;51.716;7.016;2022-09-14T15:58:39;8.23;;;6.05;;
71753;SDS011;59593;51.716;7.016;2022-09-14T16:01:08;6.97;;;5.90;;
71753;SDS011;59593;51.716;7.016;2022-09-14T16:03:38;7.88;;;6.25;;
71753;SDS011;59593;51.716;7.016;2022-09-14T16:06:06;8.35;;;6.68;;
71753;SDS011;59593;51.716;7.016;2022-09-14T16:08:36;8.95;;;6.15;;
71753;SDS011;59593;51.716;7.016;2022-09-14T16:11:03;7.35;;;6.00;;
71753;SDS011;59593;51.716;7.016;2022-09-14T16:13:30;9.68;;;6.63;;
71753;SDS011;59593;51.716;7.016;2022-09-14T16:16:06;9.07;;;6.63;;
71753;SDS011;59593;51.716;7.016;2022-09-14T16:18:34;10.02;;;6.80;;
71753;SDS011;59593;51.716;7.016;2022-09-14T16:21:04;7.70;;;6.18;;
71753;SDS011;59593;51.716;7.016;2022-09-14T16:23:32;8.82;;;6.63;;
71753;SDS011;59593;51.716;7.016;2022-09-14T16:26:01;8.88;;;6.80;;
71753;SDS011;59593;51.716;7.016;2022-09-14T16:28:29;7.75;;;5.88;;
71753;SDS011;59593;51.716;7.016;2022-09-14T16:31:02;11.43;;;6.70;;
71753;SDS011;59593;51.716;7.016;2022-09-14T16:33:29;8.93;;;6.47;;
71753;SDS011;59593;51.716;7.016;2022-09-14T16:36:02;8.65;;;5.90;;
71753;SDS011;59593;51.716;7.016;2022-09-14T16:38:30;10.23;;;6.88;;
71753;SDS011;59593;51.716;7.016;2022-09-14T16:40:57;9.63;;;7.05;;
71753;SDS011;59593;51.716;7.016;2022-09-14T16:43:23;7.63;;;6.35;;
71753;SDS011;59593;51.716;7.016;2022-09-14T16:45:58;11.70;;;7.45;;
71753;SDS011;59593;51.716;7.016;2022-09-14T16:48:25;10.88;;;7.70;;
71753;SDS011;59593;51.716;7.016;2022-09-14T16:50:54;8.70;;;6.32;;
71753;SDS011;59593;51.716;7.016;2022-09-14T16:53:19;10.63;;;6.30;;
71753;SDS011;59593;51.716;7.016;2022-09-14T16:55:45;10.18;;;6.22;;
71753;SDS011;59593;51.716;7.016;2022-09-14T16:58:11;6.72;;;5.88;;
71753;SDS011;59593;51.716;7.016;2022-09-14T17:00:37;10.75;;;6.60;;
71753;SDS011;59593;51.716;7.016;2022-09-14T17:03:02;8.57;;;6.53;;
71753;SDS011;59593;51.716;7.016;2022-09-14T17:05:28;10.07;;;6.78;;
71753;SDS011;59593;51.716;7.016;2022-09-14T17:07:53;9.93;;;7.30;;
71753;SDS011;59593;51.716;7.016;2022-09-14T17:10:19;12.77;;;7.03;;
71753;SDS011;59593;51.716;7.016;2022-09-14T17:12:44;10.55;;;7.20;;
71753;SDS011;59593;51.716;7.016;2022-09-14T17:15:11;10.57;;;6.55;;
71753;SDS011;59593;51.716;7.016;2022-09-14T17:17:38;11.13;;;7.30;;
71753;SDS011;59593;51.716;7.016;2022-09-14T17:20:04;9.60;;;6.72;;
71753;SDS011;59593;51.716;7.016;2022-09-14T17:22:31;11.05;;;7.00;;
71753;SDS011;59593;51.716;7.016;2022-09-14T17:24:57;11.05;;;7.70;;
71753;SDS011;59593;51.716;7.016;2022-09-14T17:27:22;8.73;;;7.45;;
71753;SDS011;59593;51.716;7.016;2022-09-14T17:29:48;9.93;;;7.70;;
71753;SDS011;59593;51.716;7.016;2022-09-14T17:32:14;10.65;;;8.05;;
71753;SDS011;59593;51.716;7.016;2022-09-14T17:34:41;12.77;;;7.72;;
71753;SDS011;59593;51.716;7.016;2022-09-14T17:37:07;9.98;;;7.65;;
71753;SDS011;59593;51.716;7.016;2022-09-14T17:39:32;8.88;;;7.43;;
71753;SDS011;59593;51.716;7.016;2022-09-14T17:41:58;8.27;;;7.47;;